sensor_id;sensor_type;location;lat;lon;timestamp;P1;durP1;ratioP1;P2;durP2;ratioP2
71207;SDS011;58938;49.868;8.646;2022-09-03T00:02:11;5.65;;;2.42;;
71207;SDS011;58938;49.868;8.646;2022-09-03T00:04:48;3.67;;;1.90;;
71207;SDS011;58938;49.868;8.646;2022-09-03T00:08:05;6.22;;;1.88;;
71207;SDS011;58938;49.868;8.646;2022-09-03T00:10:27;6.63;;;2.07;;
71207;SDS011;58938;49.868;8.646;2022-09-03T00:13:03;4.78;;;2.95;;
71207;SDS011;58938;49.868;8.646;2022-09-03T00:15:32;4.57;;;2.10;;
71207;SDS011;58938;49.868;8.646;2022-09-03T00:18:11;7.47;;;2.20;;
71207;SDS011;58938;49.868;8.646;2022-09-03T00:20:42;6.20;;;2.00;;
71207;SDS011;58938;49.868;8.646;2022-09-03T00:23:20;4.60;;;1.90;;
71207;SDS011;58938;49.868;8.646;2022-09-03T00:28:41;4.80;;;2.38;;
71207;SDS011;58938;49.868;8.646;2022-09-03T00:31:31;5.45;;;2.45;;
71207;SDS011;58938;49.868;8.646;2022-09-03T00:34:09;4.40;;;2.42;;
71207;SDS011;58938;49.868;8.646;2022-09-03T00:36:51;4.57;;;1.90;;
71207;SDS011;58938;49.868;8.646;2022-09-03T00:39:19;6.50;;;2.25;;
71207;SDS011;58938;49.868;8.646;2022-09-03T00:47:04;3.83;;;2.08;;
71207;SDS011;58938;49.868;8.646;2022-09-03T00:52:52;4.18;;;1.88;;
71207;SDS011;58938;49.868;8.646;2022-09-03T00:55:34;4.07;;;2.38;;
71207;SDS011;58938;49.868;8.646;2022-09-03T01:00:44;6.38;;;2.38;;
71207;SDS011;58938;49.868;8.646;2022-09-03T01:03:15;3.87;;;2.00;;
71207;SDS011;58938;49.868;8.646;2022-09-03T01:06:10;4.32;;;1.70;;
71207;SDS011;58938;49.868;8.646;2022-09-03T01:09:06;5.75;;;1.83;;
71207;SDS011;58938;49.868;8.646;2022-09-03T01:11:55;4.13;;;1.80;;
71207;SDS011;58938;49.868;8.646;2022-09-03T01:17:00;4.70;;;1.98;;
71207;SDS011;58938;49.868;8.646;2022-09-03T01:19:50;4.88;;;1.80;;
71207;SDS011;58938;49.868;8.646;2022-09-03T01:30:52;3.90;;;1.95;;
71207;SDS011;58938;49.868;8.646;2022-09-03T01:33:36;3.92;;;2.03;;
71207;SDS011;58938;49.868;8.646;2022-09-03T01:39:37;5.00;;;2.00;;
71207;SDS011;58938;49.868;8.646;2022-09-03T01:42:26;3.67;;;1.98;;
71207;SDS011;58938;49.868;8.646;2022-09-03T01:51:14;4.47;;;2.10;;
71207;SDS011;58938;49.868;8.646;2022-09-03T01:53:58;6.50;;;2.27;;
71207;SDS011;58938;49.868;8.646;2022-09-03T01:59:32;4.65;;;2.28;;
71207;SDS011;58938;49.868;8.646;2022-09-03T02:02:05;4.30;;;1.90;;
71207;SDS011;58938;49.868;8.646;2022-09-03T02:04:36;4.47;;;2.13;;
71207;SDS011;58938;49.868;8.646;2022-09-03T02:07:02;3.80;;;2.03;;
71207;SDS011;58938;49.868;8.646;2022-09-03T02:09:29;5.05;;;2.13;;
71207;SDS011;58938;49.868;8.646;2022-09-03T02:11:55;4.50;;;2.10;;
71207;SDS011;58938;49.868;8.646;2022-09-03T02:14:27;4.63;;;2.38;;
71207;SDS011;58938;49.868;8.646;2022-09-03T02:16:54;4.28;;;2.28;;
71207;SDS011;58938;49.868;8.646;2022-09-03T02:19:22;4.50;;;2.35;;
71207;SDS011;58938;49.868;8.646;2022-09-03T02:21:49;3.70;;;1.97;;
71207;SDS011;58938;49.868;8.646;2022-09-03T02:24:17;5.00;;;2.00;;
71207;SDS011;58938;49.868;8.646;2022-09-03T02:26:42;4.60;;;3.00;;
71207;SDS011;58938;49.868;8.646;2022-09-03T02:29:09;4.50;;;2.03;;
71207;SDS011;58938;49.868;8.646;2022-09-03T02:31:35;4.20;;;2.15;;
71207;SDS011;58938;49.868;8.646;2022-09-03T02:34:01;4.75;;;2.17;;
71207;SDS011;58938;49.868;8.646;2022-09-03T02:36:28;4.03;;;2.20;;
71207;SDS011;58938;49.868;8.646;2022-09-03T02:39:00;5.27;;;2.10;;
71207;SDS011;58938;49.868;8.646;2022-09-03T02:41:25;3.70;;;2.22;;
71207;SDS011;58938;49.868;8.646;2022-09-03T02:46:45;3.92;;;1.88;;
71207;SDS011;58938;49.868;8.646;2022-09-03T02:49:15;3.72;;;2.00;;
71207;SDS011;58938;49.868;8.646;2022-09-03T02:51:42;4.80;;;2.50;;
71207;SDS011;58938;49.868;8.646;2022-09-03T02:54:09;4.07;;;2.20;;
71207;SDS011;58938;49.868;8.646;2022-09-03T02:56:35;4.10;;;2.38;;
71207;SDS011;58938;49.868;8.646;2022-09-03T02:59:02;4.70;;;2.33;;
71207;SDS011;58938;49.868;8.646;2022-09-03T03:01:30;5.28;;;2.60;;
71207;SDS011;58938;49.868;8.646;2022-09-03T03:03:56;4.33;;;2.10;;
71207;SDS011;58938;49.868;8.646;2022-09-03T03:06:22;4.13;;;2.28;;
71207;SDS011;58938;49.868;8.646;2022-09-03T03:08:48;4.93;;;2.15;;
71207;SDS011;58938;49.868;8.646;2022-09-03T03:11:14;4.40;;;2.20;;
71207;SDS011;58938;49.868;8.646;2022-09-03T03:13:45;4.70;;;2.33;;
71207;SDS011;58938;49.868;8.646;2022-09-03T03:16:11;4.07;;;2.13;;
71207;SDS011;58938;49.868;8.646;2022-09-03T03:18:37;4.03;;;1.90;;
71207;SDS011;58938;49.868;8.646;2022-09-03T03:21:07;4.90;;;2.20;;
71207;SDS011;58938;49.868;8.646;2022-09-03T03:23:38;4.68;;;2.15;;
71207;SDS011;58938;49.868;8.646;2022-09-03T03:26:04;4.43;;;1.98;;
71207;SDS011;58938;49.868;8.646;2022-09-03T03:28:35;4.38;;;2.67;;
71207;SDS011;58938;49.868;8.646;2022-09-03T03:31:05;3.60;;;2.00;;
71207;SDS011;58938;49.868;8.646;2022-09-03T03:33:31;5.00;;;2.47;;
71207;SDS011;58938;49.868;8.646;2022-09-03T03:35:57;4.32;;;2.15;;
71207;SDS011;58938;49.868;8.646;2022-09-03T03:38:23;5.03;;;2.77;;
71207;SDS011;58938;49.868;8.646;2022-09-03T03:40:48;4.27;;;2.33;;
71207;SDS011;58938;49.868;8.646;2022-09-03T03:43:14;4.90;;;2.30;;
71207;SDS011;58938;49.868;8.646;2022-09-03T03:45:39;4.85;;;2.80;;
71207;SDS011;58938;49.868;8.646;2022-09-03T03:48:05;4.03;;;2.37;;
71207;SDS011;58938;49.868;8.646;2022-09-03T03:50:30;4.50;;;2.30;;
71207;SDS011;58938;49.868;8.646;2022-09-03T03:52:59;8.23;;;2.13;;
71207;SDS011;58938;49.868;8.646;2022-09-03T03:55:25;7.35;;;2.35;;
71207;SDS011;58938;49.868;8.646;2022-09-03T03:57:50;4.43;;;2.30;;
71207;SDS011;58938;49.868;8.646;2022-09-03T04:00:16;6.43;;;2.73;;
71207;SDS011;58938;49.868;8.646;2022-09-03T04:02:42;4.00;;;2.28;;
71207;SDS011;58938;49.868;8.646;2022-09-03T04:05:07;3.97;;;2.40;;
71207;SDS011;58938;49.868;8.646;2022-09-03T04:07:33;4.80;;;2.50;;
71207;SDS011;58938;49.868;8.646;2022-09-03T04:09:58;5.30;;;2.47;;
71207;SDS011;58938;49.868;8.646;2022-09-03T04:12:25;5.90;;;2.30;;
71207;SDS011;58938;49.868;8.646;2022-09-03T04:14:51;4.18;;;2.30;;
71207;SDS011;58938;49.868;8.646;2022-09-03T04:17:17;4.90;;;2.10;;
71207;SDS011;58938;49.868;8.646;2022-09-03T04:19:42;4.38;;;2.08;;
71207;SDS011;58938;49.868;8.646;2022-09-03T04:22:08;5.57;;;2.40;;
71207;SDS011;58938;49.868;8.646;2022-09-03T04:24:33;5.47;;;2.20;;
71207;SDS011;58938;49.868;8.646;2022-09-03T04:26:59;4.05;;;2.13;;
71207;SDS011;58938;49.868;8.646;2022-09-03T04:29:25;4.47;;;2.27;;
71207;SDS011;58938;49.868;8.646;2022-09-03T04:31:50;3.63;;;1.90;;
71207;SDS011;58938;49.868;8.646;2022-09-03T04:34:35;5.03;;;2.30;;
71207;SDS011;58938;49.868;8.646;2022-09-03T04:37:00;4.10;;;2.05;;
71207;SDS011;58938;49.868;8.646;2022-09-03T04:39:26;4.10;;;2.20;;
71207;SDS011;58938;49.868;8.646;2022-09-03T04:41:51;5.78;;;2.10;;
71207;SDS011;58938;49.868;8.646;2022-09-03T04:44:17;4.13;;;2.37;;
71207;SDS011;58938;49.868;8.646;2022-09-03T04:46:43;4.47;;;2.30;;
71207;SDS011;58938;49.868;8.646;2022-09-03T04:49:11;4.88;;;2.63;;
71207;SDS011;58938;49.868;8.646;2022-09-03T04:51:37;4.10;;;2.10;;
71207;SDS011;58938;49.868;8.646;2022-09-03T04:54:03;4.10;;;2.53;;
71207;SDS011;58938;49.868;8.646;2022-09-03T04:56:33;4.10;;;2.33;;
71207;SDS011;58938;49.868;8.646;2022-09-03T04:59:08;4.20;;;2.30;;
71207;SDS011;58938;49.868;8.646;2022-09-03T05:01:34;4.65;;;2.45;;
71207;SDS011;58938;49.868;8.646;2022-09-03T05:04:02;4.20;;;2.20;;
71207;SDS011;58938;49.868;8.646;2022-09-03T05:06:29;4.57;;;2.33;;
71207;SDS011;58938;49.868;8.646;2022-09-03T05:08:55;4.38;;;2.63;;
71207;SDS011;58938;49.868;8.646;2022-09-03T05:11:22;4.67;;;1.90;;
71207;SDS011;58938;49.868;8.646;2022-09-03T05:13:49;3.90;;;2.17;;
71207;SDS011;58938;49.868;8.646;2022-09-03T05:16:16;4.40;;;2.20;;
71207;SDS011;58938;49.868;8.646;2022-09-03T05:18:42;5.07;;;2.00;;
71207;SDS011;58938;49.868;8.646;2022-09-03T05:21:10;5.32;;;2.65;;
71207;SDS011;58938;49.868;8.646;2022-09-03T05:23:38;4.40;;;2.10;;
71207;SDS011;58938;49.868;8.646;2022-09-03T05:26:07;4.72;;;2.30;;
71207;SDS011;58938;49.868;8.646;2022-09-03T05:28:35;4.43;;;2.65;;
71207;SDS011;58938;49.868;8.646;2022-09-03T05:31:12;4.53;;;2.45;;
71207;SDS011;58938;49.868;8.646;2022-09-03T05:33:52;4.97;;;2.45;;
71207;SDS011;58938;49.868;8.646;2022-09-03T05:36:19;5.63;;;2.40;;
71207;SDS011;58938;49.868;8.646;2022-09-03T05:38:47;6.07;;;2.65;;
71207;SDS011;58938;49.868;8.646;2022-09-03T05:41:14;4.45;;;2.22;;
71207;SDS011;58938;49.868;8.646;2022-09-03T05:43:41;4.57;;;2.50;;
71207;SDS011;58938;49.868;8.646;2022-09-03T05:46:11;6.05;;;2.80;;
71207;SDS011;58938;49.868;8.646;2022-09-03T05:48:40;4.93;;;2.77;;
71207;SDS011;58938;49.868;8.646;2022-09-03T05:51:13;4.28;;;2.33;;
71207;SDS011;58938;49.868;8.646;2022-09-03T05:53:40;4.45;;;2.60;;
71207;SDS011;58938;49.868;8.646;2022-09-03T05:56:26;5.10;;;2.85;;
71207;SDS011;58938;49.868;8.646;2022-09-03T05:58:55;4.22;;;2.78;;
71207;SDS011;58938;49.868;8.646;2022-09-03T06:01:26;5.07;;;2.53;;
71207;SDS011;58938;49.868;8.646;2022-09-03T06:04:04;4.00;;;2.50;;
71207;SDS011;58938;49.868;8.646;2022-09-03T06:06:38;5.30;;;2.70;;
71207;SDS011;58938;49.868;8.646;2022-09-03T06:09:06;4.55;;;2.65;;
71207;SDS011;58938;49.868;8.646;2022-09-03T06:11:34;6.07;;;2.72;;
71207;SDS011;58938;49.868;8.646;2022-09-03T06:14:02;4.70;;;2.30;;
71207;SDS011;58938;49.868;8.646;2022-09-03T06:16:29;4.35;;;2.72;;
71207;SDS011;58938;49.868;8.646;2022-09-03T06:18:56;8.88;;;2.63;;
71207;SDS011;58938;49.868;8.646;2022-09-03T06:21:22;5.88;;;2.53;;
71207;SDS011;58938;49.868;8.646;2022-09-03T06:23:49;5.13;;;2.73;;
71207;SDS011;58938;49.868;8.646;2022-09-03T06:26:19;4.97;;;2.92;;
71207;SDS011;58938;49.868;8.646;2022-09-03T06:28:45;7.95;;;3.17;;
71207;SDS011;58938;49.868;8.646;2022-09-03T06:31:13;8.03;;;3.20;;
71207;SDS011;58938;49.868;8.646;2022-09-03T06:33:40;5.75;;;3.08;;
71207;SDS011;58938;49.868;8.646;2022-09-03T06:36:07;6.93;;;3.35;;
71207;SDS011;58938;49.868;8.646;2022-09-03T06:38:35;5.47;;;3.30;;
71207;SDS011;58938;49.868;8.646;2022-09-03T06:41:05;5.45;;;3.38;;
71207;SDS011;58938;49.868;8.646;2022-09-03T06:43:35;6.33;;;3.37;;
71207;SDS011;58938;49.868;8.646;2022-09-03T06:48:37;7.45;;;3.20;;
71207;SDS011;58938;49.868;8.646;2022-09-03T06:51:05;7.63;;;3.60;;
71207;SDS011;58938;49.868;8.646;2022-09-03T06:54:21;6.60;;;3.63;;
71207;SDS011;58938;49.868;8.646;2022-09-03T06:56:25;6.27;;;3.40;;
71207;SDS011;58938;49.868;8.646;2022-09-03T06:58:51;8.10;;;3.80;;
71207;SDS011;58938;49.868;8.646;2022-09-03T07:01:25;5.60;;;2.80;;
71207;SDS011;58938;49.868;8.646;2022-09-03T07:03:55;7.90;;;3.47;;
71207;SDS011;58938;49.868;8.646;2022-09-03T07:06:26;5.07;;;3.15;;
71207;SDS011;58938;49.868;8.646;2022-09-03T07:08:53;5.82;;;3.70;;
71207;SDS011;58938;49.868;8.646;2022-09-03T07:11:20;6.13;;;3.40;;
71207;SDS011;58938;49.868;8.646;2022-09-03T07:13:49;5.33;;;3.00;;
71207;SDS011;58938;49.868;8.646;2022-09-03T07:16:17;6.25;;;3.10;;
71207;SDS011;58938;49.868;8.646;2022-09-03T07:18:47;5.60;;;3.05;;
71207;SDS011;58938;49.868;8.646;2022-09-03T07:21:14;5.57;;;3.38;;
71207;SDS011;58938;49.868;8.646;2022-09-03T07:23:45;6.63;;;3.90;;
71207;SDS011;58938;49.868;8.646;2022-09-03T07:26:15;5.27;;;3.70;;
71207;SDS011;58938;49.868;8.646;2022-09-03T07:28:44;8.20;;;3.78;;
71207;SDS011;58938;49.868;8.646;2022-09-03T07:31:32;5.30;;;3.67;;
71207;SDS011;58938;49.868;8.646;2022-09-03T07:33:58;7.28;;;4.30;;
71207;SDS011;58938;49.868;8.646;2022-09-03T07:36:25;5.80;;;3.83;;
71207;SDS011;58938;49.868;8.646;2022-09-03T07:38:56;5.90;;;3.57;;
71207;SDS011;58938;49.868;8.646;2022-09-03T07:41:22;6.75;;;3.60;;
71207;SDS011;58938;49.868;8.646;2022-09-03T07:43:50;7.70;;;4.45;;
71207;SDS011;58938;49.868;8.646;2022-09-03T07:46:17;9.88;;;3.78;;
71207;SDS011;58938;49.868;8.646;2022-09-03T07:48:51;8.77;;;4.07;;
71207;SDS011;58938;49.868;8.646;2022-09-03T07:51:18;7.83;;;4.30;;
71207;SDS011;58938;49.868;8.646;2022-09-03T07:53:46;7.68;;;4.57;;
71207;SDS011;58938;49.868;8.646;2022-09-03T07:56:12;6.80;;;4.40;;
71207;SDS011;58938;49.868;8.646;2022-09-03T07:58:39;8.95;;;4.25;;
71207;SDS011;58938;49.868;8.646;2022-09-03T08:01:07;9.45;;;4.55;;
71207;SDS011;58938;49.868;8.646;2022-09-03T08:03:34;7.23;;;3.80;;
71207;SDS011;58938;49.868;8.646;2022-09-03T08:06:01;9.88;;;4.60;;
71207;SDS011;58938;49.868;8.646;2022-09-03T08:08:28;7.68;;;4.60;;
71207;SDS011;58938;49.868;8.646;2022-09-03T08:10:54;6.18;;;4.30;;
71207;SDS011;58938;49.868;8.646;2022-09-03T08:13:22;6.85;;;4.47;;
71207;SDS011;58938;49.868;8.646;2022-09-03T08:15:54;7.70;;;4.60;;
71207;SDS011;58938;49.868;8.646;2022-09-03T08:18:20;6.60;;;4.00;;
71207;SDS011;58938;49.868;8.646;2022-09-03T08:20:47;6.90;;;4.35;;
71207;SDS011;58938;49.868;8.646;2022-09-03T08:23:12;8.33;;;4.87;;
71207;SDS011;58938;49.868;8.646;2022-09-03T08:25:38;6.10;;;4.15;;
71207;SDS011;58938;49.868;8.646;2022-09-03T08:28:04;7.10;;;3.43;;
71207;SDS011;58938;49.868;8.646;2022-09-03T08:30:29;6.72;;;4.38;;
71207;SDS011;58938;49.868;8.646;2022-09-03T08:32:55;7.27;;;4.60;;
71207;SDS011;58938;49.868;8.646;2022-09-03T08:35:20;6.97;;;4.60;;
71207;SDS011;58938;49.868;8.646;2022-09-03T08:37:47;7.77;;;4.80;;
71207;SDS011;58938;49.868;8.646;2022-09-03T08:40:15;7.03;;;4.97;;
71207;SDS011;58938;49.868;8.646;2022-09-03T08:42:50;6.57;;;5.43;;
71207;SDS011;58938;49.868;8.646;2022-09-03T08:45:18;7.97;;;4.80;;
71207;SDS011;58938;49.868;8.646;2022-09-03T08:52:59;7.80;;;4.70;;
71207;SDS011;58938;49.868;8.646;2022-09-03T08:55:38;7.70;;;4.93;;
71207;SDS011;58938;49.868;8.646;2022-09-03T08:58:10;9.55;;;4.60;;
71207;SDS011;58938;49.868;8.646;2022-09-03T09:03:28;7.53;;;5.00;;
71207;SDS011;58938;49.868;8.646;2022-09-03T09:06:06;6.65;;;5.00;;
71207;SDS011;58938;49.868;8.646;2022-09-03T09:08:35;8.43;;;5.10;;
71207;SDS011;58938;49.868;8.646;2022-09-03T09:11:25;7.78;;;5.13;;
71207;SDS011;58938;49.868;8.646;2022-09-03T09:14:14;7.07;;;4.60;;
71207;SDS011;58938;49.868;8.646;2022-09-03T09:17:06;7.80;;;5.30;;
71207;SDS011;58938;49.868;8.646;2022-09-03T09:22:38;5.90;;;4.50;;
71207;SDS011;58938;49.868;8.646;2022-09-03T09:25:10;6.03;;;4.18;;
71207;SDS011;58938;49.868;8.646;2022-09-03T09:27:50;6.63;;;3.97;;
71207;SDS011;58938;49.868;8.646;2022-09-03T09:30:20;6.72;;;4.15;;
71207;SDS011;58938;49.868;8.646;2022-09-03T09:32:46;7.13;;;4.33;;
71207;SDS011;58938;49.868;8.646;2022-09-03T09:35:12;5.95;;;4.90;;
71207;SDS011;58938;49.868;8.646;2022-09-03T09:37:56;7.60;;;4.73;;
71207;SDS011;58938;49.868;8.646;2022-09-03T09:40:25;7.50;;;4.28;;
71207;SDS011;58938;49.868;8.646;2022-09-03T09:43:15;6.88;;;4.63;;
71207;SDS011;58938;49.868;8.646;2022-09-03T09:45:48;7.20;;;5.07;;
71207;SDS011;58938;49.868;8.646;2022-09-03T09:48:19;6.82;;;4.47;;
71207;SDS011;58938;49.868;8.646;2022-09-03T09:53:30;6.50;;;4.65;;
71207;SDS011;58938;49.868;8.646;2022-09-03T09:55:56;7.80;;;4.60;;
71207;SDS011;58938;49.868;8.646;2022-09-03T09:58:23;6.37;;;4.23;;
71207;SDS011;58938;49.868;8.646;2022-09-03T10:00:55;6.53;;;4.30;;
71207;SDS011;58938;49.868;8.646;2022-09-03T10:03:28;6.90;;;4.22;;
71207;SDS011;58938;49.868;8.646;2022-09-03T10:06:01;6.07;;;4.43;;
71207;SDS011;58938;49.868;8.646;2022-09-03T10:08:50;7.68;;;5.03;;
71207;SDS011;58938;49.868;8.646;2022-09-03T10:11:17;6.77;;;4.20;;
71207;SDS011;58938;49.868;8.646;2022-09-03T10:13:49;9.15;;;3.92;;
71207;SDS011;58938;49.868;8.646;2022-09-03T10:16:21;5.90;;;4.47;;
71207;SDS011;58938;49.868;8.646;2022-09-03T10:18:54;6.13;;;4.72;;
71207;SDS011;58938;49.868;8.646;2022-09-03T10:21:44;9.15;;;5.05;;
71207;SDS011;58938;49.868;8.646;2022-09-03T10:27:09;7.80;;;4.80;;
71207;SDS011;58938;49.868;8.646;2022-09-03T10:29:37;6.28;;;4.20;;
71207;SDS011;58938;49.868;8.646;2022-09-03T10:32:12;9.40;;;4.30;;
71207;SDS011;58938;49.868;8.646;2022-09-03T10:37:36;5.97;;;4.30;;
71207;SDS011;58938;49.868;8.646;2022-09-03T10:40:18;7.45;;;4.55;;
71207;SDS011;58938;49.868;8.646;2022-09-03T10:48:10;6.53;;;4.43;;
71207;SDS011;58938;49.868;8.646;2022-09-03T10:50:43;6.97;;;4.37;;
71207;SDS011;58938;49.868;8.646;2022-09-03T10:53:50;7.18;;;4.97;;
71207;SDS011;58938;49.868;8.646;2022-09-03T10:56:31;10.07;;;5.13;;
71207;SDS011;58938;49.868;8.646;2022-09-03T11:07:20;6.68;;;4.57;;
71207;SDS011;58938;49.868;8.646;2022-09-03T11:09:57;6.53;;;4.47;;
71207;SDS011;58938;49.868;8.646;2022-09-03T11:12:36;7.40;;;4.30;;
71207;SDS011;58938;49.868;8.646;2022-09-03T11:17:51;6.20;;;4.60;;
71207;SDS011;58938;49.868;8.646;2022-09-03T11:20:23;6.00;;;4.60;;
71207;SDS011;58938;49.868;8.646;2022-09-03T11:22:51;6.55;;;4.72;;
71207;SDS011;58938;49.868;8.646;2022-09-03T11:25:21;6.25;;;4.63;;
71207;SDS011;58938;49.868;8.646;2022-09-03T11:28:37;6.55;;;4.45;;
71207;SDS011;58938;49.868;8.646;2022-09-03T11:33:44;6.90;;;4.82;;
71207;SDS011;58938;49.868;8.646;2022-09-03T11:36:27;6.43;;;4.47;;
71207;SDS011;58938;49.868;8.646;2022-09-03T11:38:58;6.60;;;4.57;;
71207;SDS011;58938;49.868;8.646;2022-09-03T11:41:27;6.13;;;3.75;;
71207;SDS011;58938;49.868;8.646;2022-09-03T11:44:16;7.80;;;5.17;;
71207;SDS011;58938;49.868;8.646;2022-09-03T11:46:55;6.88;;;4.00;;
71207;SDS011;58938;49.868;8.646;2022-09-03T11:49:29;6.07;;;4.32;;
71207;SDS011;58938;49.868;8.646;2022-09-03T11:52:00;8.13;;;4.60;;
71207;SDS011;58938;49.868;8.646;2022-09-03T11:54:30;7.72;;;4.35;;
71207;SDS011;58938;49.868;8.646;2022-09-03T11:57:08;5.57;;;3.50;;
71207;SDS011;58938;49.868;8.646;2022-09-03T11:59:40;6.43;;;3.90;;
71207;SDS011;58938;49.868;8.646;2022-09-03T12:07:30;7.65;;;4.10;;
71207;SDS011;58938;49.868;8.646;2022-09-03T12:19:02;5.78;;;4.13;;
71207;SDS011;58938;49.868;8.646;2022-09-03T12:21:38;5.15;;;3.63;;
71207;SDS011;58938;49.868;8.646;2022-09-03T12:24:05;6.30;;;3.80;;
71207;SDS011;58938;49.868;8.646;2022-09-03T12:26:38;5.20;;;3.63;;
71207;SDS011;58938;49.868;8.646;2022-09-03T12:29:05;5.32;;;3.80;;
71207;SDS011;58938;49.868;8.646;2022-09-03T12:31:43;6.63;;;3.85;;
71207;SDS011;58938;49.868;8.646;2022-09-03T12:34:14;6.75;;;3.53;;
71207;SDS011;58938;49.868;8.646;2022-09-03T12:36:48;6.10;;;3.50;;
71207;SDS011;58938;49.868;8.646;2022-09-03T12:39:25;6.47;;;3.47;;
71207;SDS011;58938;49.868;8.646;2022-09-03T12:41:53;5.90;;;3.80;;
71207;SDS011;58938;49.868;8.646;2022-09-03T12:44:24;7.03;;;4.13;;
71207;SDS011;58938;49.868;8.646;2022-09-03T12:47:13;7.90;;;4.68;;
71207;SDS011;58938;49.868;8.646;2022-09-03T12:49:42;5.70;;;3.87;;
71207;SDS011;58938;49.868;8.646;2022-09-03T12:52:28;6.10;;;4.25;;
71207;SDS011;58938;49.868;8.646;2022-09-03T12:55:04;5.55;;;3.55;;
71207;SDS011;58938;49.868;8.646;2022-09-03T12:57:42;5.68;;;3.90;;
71207;SDS011;58938;49.868;8.646;2022-09-03T13:00:16;6.57;;;3.85;;
71207;SDS011;58938;49.868;8.646;2022-09-03T13:02:48;7.20;;;3.70;;
71207;SDS011;58938;49.868;8.646;2022-09-03T13:05:21;5.97;;;4.18;;
71207;SDS011;58938;49.868;8.646;2022-09-03T13:08:00;8.20;;;3.83;;
71207;SDS011;58938;49.868;8.646;2022-09-03T13:10:36;5.32;;;3.53;;
71207;SDS011;58938;49.868;8.646;2022-09-03T13:23:54;6.67;;;4.00;;
71207;SDS011;58938;49.868;8.646;2022-09-03T13:29:43;6.93;;;3.60;;
71207;SDS011;58938;49.868;8.646;2022-09-03T13:34:53;6.97;;;3.70;;
71207;SDS011;58938;49.868;8.646;2022-09-03T13:37:24;6.18;;;4.18;;
71207;SDS011;58938;49.868;8.646;2022-09-03T13:39:56;6.50;;;4.20;;
71207;SDS011;58938;49.868;8.646;2022-09-03T13:42:31;6.03;;;3.90;;
71207;SDS011;58938;49.868;8.646;2022-09-03T13:45:02;7.10;;;3.70;;
71207;SDS011;58938;49.868;8.646;2022-09-03T13:50:10;7.10;;;3.58;;
71207;SDS011;58938;49.868;8.646;2022-09-03T13:52:56;5.40;;;2.70;;
71207;SDS011;58938;49.868;8.646;2022-09-03T14:01:09;4.40;;;2.40;;
71207;SDS011;58938;49.868;8.646;2022-09-03T14:04:03;4.60;;;2.67;;
71207;SDS011;58938;49.868;8.646;2022-09-03T14:06:42;4.47;;;2.67;;
71207;SDS011;58938;49.868;8.646;2022-09-03T14:14:53;4.60;;;2.67;;
71207;SDS011;58938;49.868;8.646;2022-09-03T14:17:35;5.32;;;2.90;;
71207;SDS011;58938;49.868;8.646;2022-09-03T14:22:52;4.45;;;2.58;;
71207;SDS011;58938;49.868;8.646;2022-09-03T14:25:29;4.82;;;2.60;;
71207;SDS011;58938;49.868;8.646;2022-09-03T14:28:19;4.80;;;2.80;;
71207;SDS011;58938;49.868;8.646;2022-09-03T14:31:04;5.10;;;2.70;;
71207;SDS011;58938;49.868;8.646;2022-09-03T14:39:08;5.85;;;3.22;;
71207;SDS011;58938;49.868;8.646;2022-09-03T14:46:51;5.00;;;2.90;;
71207;SDS011;58938;49.868;8.646;2022-09-03T15:12:35;5.35;;;2.85;;
71207;SDS011;58938;49.868;8.646;2022-09-03T15:15:07;5.20;;;2.90;;
71207;SDS011;58938;49.868;8.646;2022-09-03T15:31:57;5.20;;;2.90;;
71207;SDS011;58938;49.868;8.646;2022-09-03T15:34:59;6.43;;;2.72;;
71207;SDS011;58938;49.868;8.646;2022-09-03T15:40:24;5.57;;;3.15;;
71207;SDS011;58938;49.868;8.646;2022-09-03T15:45:35;5.78;;;3.35;;
71207;SDS011;58938;49.868;8.646;2022-09-03T15:48:11;6.53;;;3.70;;
71207;SDS011;58938;49.868;8.646;2022-09-03T15:50:46;6.17;;;3.30;;
71207;SDS011;58938;49.868;8.646;2022-09-03T15:58:59;6.15;;;3.03;;
71207;SDS011;58938;49.868;8.646;2022-09-03T16:01:51;5.88;;;3.35;;
71207;SDS011;58938;49.868;8.646;2022-09-03T16:04:27;6.47;;;3.50;;
71207;SDS011;58938;49.868;8.646;2022-09-03T16:07:00;6.05;;;3.70;;
71207;SDS011;58938;49.868;8.646;2022-09-03T16:15:25;6.70;;;3.70;;
71207;SDS011;58938;49.868;8.646;2022-09-03T16:17:55;5.77;;;3.33;;
71207;SDS011;58938;49.868;8.646;2022-09-03T16:23:15;4.88;;;3.10;;
71207;SDS011;58938;49.868;8.646;2022-09-03T16:26:15;6.28;;;3.22;;
71207;SDS011;58938;49.868;8.646;2022-09-03T16:28:54;4.53;;;2.80;;
71207;SDS011;58938;49.868;8.646;2022-09-03T16:42:37;5.38;;;3.42;;
71207;SDS011;58938;49.868;8.646;2022-09-03T16:45:08;5.70;;;3.60;;
71207;SDS011;58938;49.868;8.646;2022-09-03T16:58:39;4.03;;;2.00;;
71207;SDS011;58938;49.868;8.646;2022-09-03T17:07:35;3.00;;;1.48;;
71207;SDS011;58938;49.868;8.646;2022-09-03T17:10:26;2.85;;;1.20;;
71207;SDS011;58938;49.868;8.646;2022-09-03T17:13:14;2.90;;;1.17;;
71207;SDS011;58938;49.868;8.646;2022-09-03T17:18:29;2.60;;;1.02;;
71207;SDS011;58938;49.868;8.646;2022-09-03T17:21:10;2.60;;;1.17;;
71207;SDS011;58938;49.868;8.646;2022-09-03T17:26:32;2.97;;;1.43;;
71207;SDS011;58938;49.868;8.646;2022-09-03T17:37:41;2.83;;;0.80;;
71207;SDS011;58938;49.868;8.646;2022-09-03T17:40:36;2.90;;;1.20;;
71207;SDS011;58938;49.868;8.646;2022-09-03T17:43:23;2.90;;;1.00;;
71207;SDS011;58938;49.868;8.646;2022-09-03T17:48:53;3.22;;;1.10;;
71207;SDS011;58938;49.868;8.646;2022-09-03T17:51:30;3.58;;;1.42;;
71207;SDS011;58938;49.868;8.646;2022-09-03T17:54:03;3.97;;;1.40;;
71207;SDS011;58938;49.868;8.646;2022-09-03T18:02:26;4.47;;;1.63;;
71207;SDS011;58938;49.868;8.646;2022-09-03T18:13:23;7.43;;;3.78;;
71207;SDS011;58938;49.868;8.646;2022-09-03T18:18:52;4.80;;;2.15;;
71207;SDS011;58938;49.868;8.646;2022-09-03T18:21:42;5.40;;;2.10;;
71207;SDS011;58938;49.868;8.646;2022-09-03T18:24:48;3.72;;;1.75;;
71207;SDS011;58938;49.868;8.646;2022-09-03T18:27:39;4.55;;;1.67;;
71207;SDS011;58938;49.868;8.646;2022-09-03T18:30:27;3.83;;;1.50;;
71207;SDS011;58938;49.868;8.646;2022-09-03T18:33:11;4.38;;;1.80;;
71207;SDS011;58938;49.868;8.646;2022-09-03T18:35:57;4.57;;;1.60;;
71207;SDS011;58938;49.868;8.646;2022-09-03T18:38:42;3.53;;;1.58;;
71207;SDS011;58938;49.868;8.646;2022-09-03T18:45:23;5.13;;;1.70;;
71207;SDS011;58938;49.868;8.646;2022-09-03T18:48:11;4.22;;;1.70;;
71207;SDS011;58938;49.868;8.646;2022-09-03T18:51:35;4.20;;;1.30;;
71207;SDS011;58938;49.868;8.646;2022-09-03T18:57:34;4.82;;;1.45;;
71207;SDS011;58938;49.868;8.646;2022-09-03T19:00:44;4.70;;;1.88;;
71207;SDS011;58938;49.868;8.646;2022-09-03T19:07:12;4.23;;;1.80;;
71207;SDS011;58938;49.868;8.646;2022-09-03T19:10:07;3.92;;;1.80;;
71207;SDS011;58938;49.868;8.646;2022-09-03T19:13:15;3.83;;;1.90;;
71207;SDS011;58938;49.868;8.646;2022-09-03T19:16:12;4.53;;;1.88;;
71207;SDS011;58938;49.868;8.646;2022-09-03T19:22:22;5.30;;;2.10;;
71207;SDS011;58938;49.868;8.646;2022-09-03T19:25:17;4.10;;;2.20;;
71207;SDS011;58938;49.868;8.646;2022-09-03T19:28:12;6.07;;;2.92;;
71207;SDS011;58938;49.868;8.646;2022-09-03T19:48:58;4.70;;;2.00;;
71207;SDS011;58938;49.868;8.646;2022-09-03T19:51:51;5.33;;;1.93;;
71207;SDS011;58938;49.868;8.646;2022-09-03T19:54:57;7.00;;;2.53;;
71207;SDS011;58938;49.868;8.646;2022-09-03T19:57:42;4.68;;;2.30;;
71207;SDS011;58938;49.868;8.646;2022-09-03T20:00:30;7.60;;;2.60;;
71207;SDS011;58938;49.868;8.646;2022-09-03T20:03:15;5.80;;;2.70;;
71207;SDS011;58938;49.868;8.646;2022-09-03T20:06:00;7.80;;;3.47;;
71207;SDS011;58938;49.868;8.646;2022-09-03T20:08:47;7.13;;;2.45;;
71207;SDS011;58938;49.868;8.646;2022-09-03T20:11:32;6.25;;;2.90;;
71207;SDS011;58938;49.868;8.646;2022-09-03T20:13:58;5.65;;;2.85;;
71207;SDS011;58938;49.868;8.646;2022-09-03T20:16:42;6.07;;;2.78;;
71207;SDS011;58938;49.868;8.646;2022-09-03T20:21:52;6.22;;;3.03;;
71207;SDS011;58938;49.868;8.646;2022-09-03T20:35:27;6.70;;;3.42;;